Aérodrome :
LOGIN :

S'inscrire | Disclaimer

   EN    FR    IT 

 










Légende :    VFR   VFR Marginal   IFR   IFR Intensif   IFR Très Intensif
Visi : 
Plafond : 
>= 8 km
>= 3000ft
5 à 8 km
1000 à 3000 ft
1500m à 5 km
500 à 1000 ft
800 à 1500m
200 à 500 ft
< 800m
< 200 ft
Symboles :   Orages  Brouillard  Fortes neiges  Fortes précipitations  Vent > 20 kt
SIGMETs :   Divers  Orages  Givrage  Turbulence  Onde Orograph.  Cendres Volcan.






- Altitude de l'aérodrome : 268 ft
- Code IATA : BFS


EGAA - Belfast Aldergrove

DERNIER METAR :
  • 221050Z 20010KT 9999 FEW015 09/07 Q1019

METARs EXPIRÉS :
  • 221020Z 20008KT 160V230 9999 NSC 08/06 Q1019
  • 220950Z 20008KT 9999 FEW040 08/06 Q1019
  • 220920Z 19007KT 9999 SCT028 SCT034 08/06 Q1019
  • 220850Z 19006KT 9999 SCT025 SCT030 07/05 Q1019
  • 220820Z 19005KT 170V230 9999 FEW022 SCT030 07/05 Q1019

TAF TAF EGAA
Valide du 22 à 06h jusqu'au 23 à 06h UTC


220500Z 2206/2306 21009KT 9999 FEW020 SCT030



MET'MAP, la Météo Aéronautique d'un coup d'oeil ! - Copyright ORBIFLY Décembre 2007 - Disclaimer

ORBIFLY MET'MAP TEAM :

Programmation & Développement : Alexandra Zaïnal
Conception & Développement : Baudouin d'Aumeries
Co-Programmation & Développement : Marc-Olivier Méhu
Soutien technique & logistique : Manuel Goepfert

Contact : metmap@orbifly.com




SOURCES & CREDITS :

   NOAA